AAL3 KTUS-KMAF
Flight info
| Callsign | AAL3 |
|---|---|
| Flight time | 0h 52m |
| Altitude | 39000 |
| Route | BURRO5 NOCHI EWM |
| Aircraft | B77W/H-SDE1E2E3FGHIJ2J3J4J5M1RWXY/LB1D1 |
Departure
| Time | 2026-05-06 17:37 |
|---|---|
| Airport | Tucson International Airport (KTUS) |
Arrival
| Time | 2026-05-06 18:29 |
|---|---|
| Airport | Midland International Air and Space Port (KMAF) |
| Time | Latitude | Longitude | Altitude | Speed | Heading |
|---|---|---|---|---|---|
| 2026-05-06 17:33 | 32.12447 | -110.94559 | 2589 ft | 0 kts | 136° |
| 2026-05-06 17:36 | 32.12414 | -110.94582 | 2589 ft | 11 kts | 253° |
| 2026-05-06 17:36 | 32.12367 | -110.94722 | 2588 ft | 24 kts | 237° |
| 2026-05-06 17:36 | 32.12270 | -110.94715 | 2590 ft | 7 kts | 132° |
| 2026-05-06 17:36 | 32.12232 | -110.94667 | 2592 ft | 42 kts | 133° |
| 2026-05-06 17:37 | 32.11750 | -110.94108 | 2610 ft | 149 kts | 135° |
| 2026-05-06 17:37 | 32.10875 | -110.93061 | 3277 ft | 193 kts | 134° |
| 2026-05-06 17:37 | 32.09946 | -110.91969 | 4834 ft | 197 kts | 134° |
| 2026-05-06 17:37 | 32.08956 | -110.90807 | 6216 ft | 213 kts | 133° |
| 2026-05-06 17:38 | 32.07879 | -110.89539 | 7639 ft | 230 kts | 134° |
| 2026-05-06 17:38 | 32.06733 | -110.88192 | 8991 ft | 249 kts | 134° |
| 2026-05-06 17:38 | 32.05474 | -110.86714 | 10393 ft | 268 kts | 135° |
| 2026-05-06 17:38 | 32.04110 | -110.85118 | 11785 ft | 288 kts | 136° |
| 2026-05-06 17:39 | 32.02729 | -110.83327 | 13251 ft | 307 kts | 129° |
| 2026-05-06 17:39 | 32.01529 | -110.81165 | 14695 ft | 326 kts | 120° |
| 2026-05-06 17:39 | 32.00589 | -110.78606 | 15995 ft | 351 kts | 109° |
| 2026-05-06 17:39 | 32.00036 | -110.75717 | 17266 ft | 375 kts | 98° |
| 2026-05-06 17:40 | 31.99962 | -110.72527 | 18486 ft | 399 kts | 88° |
| 2026-05-06 17:40 | 32.00126 | -110.69199 | 19684 ft | 420 kts | 88° |
| 2026-05-06 17:40 | 32.00300 | -110.65646 | 20866 ft | 440 kts | 88° |
| 2026-05-06 17:40 | 32.00463 | -110.61954 | 21939 ft | 461 kts | 88° |
| 2026-05-06 17:41 | 32.00624 | -110.58052 | 22925 ft | 483 kts | 89° |
| 2026-05-06 17:41 | 32.00781 | -110.54023 | 23815 ft | 503 kts | 89° |
| 2026-05-06 17:41 | 32.00940 | -110.49782 | 24706 ft | 521 kts | 90° |
| 2026-05-06 17:41 | 32.01099 | -110.45461 | 25681 ft | 534 kts | 91° |
| 2026-05-06 17:42 | 32.01257 | -110.41026 | 26656 ft | 546 kts | 91° |
| 2026-05-06 17:42 | 32.01417 | -110.36466 | 27605 ft | 555 kts | 91° |
| 2026-05-06 17:42 | 32.01578 | -110.31812 | 28383 ft | 567 kts | 93° |
| 2026-05-06 17:42 | 32.01738 | -110.27076 | 29111 ft | 578 kts | 93° |
| 2026-05-06 17:43 | 32.01897 | -110.22303 | 29843 ft | 586 kts | 93° |
| 2026-05-06 17:43 | 32.02059 | -110.17464 | 30948 ft | 585 kts | 93° |
| 2026-05-06 17:43 | 32.02219 | -110.12651 | 32100 ft | 581 kts | 93° |
| 2026-05-06 17:43 | 32.02375 | -110.07867 | 33049 ft | 580 kts | 94° |
| 2026-05-06 17:44 | 32.02528 | -110.03064 | 33958 ft | 580 kts | 94° |
| 2026-05-06 17:44 | 32.02676 | -109.98346 | 34905 ft | 578 kts | 94° |
| 2026-05-06 17:44 | 32.02825 | -109.93550 | 35820 ft | 576 kts | 94° |
| 2026-05-06 17:44 | 32.02971 | -109.88769 | 36651 ft | 574 kts | 94° |
| 2026-05-06 17:45 | 32.03116 | -109.83949 | 37287 ft | 576 kts | 94° |
| 2026-05-06 17:45 | 32.03259 | -109.79101 | 37925 ft | 577 kts | 94° |
| 2026-05-06 17:45 | 32.03394 | -109.74320 | 38527 ft | 577 kts | 96° |
| 2026-05-06 17:45 | 32.03381 | -109.69512 | 39095 ft | 576 kts | 97° |
| 2026-05-06 17:46 | 32.03312 | -109.64725 | 39143 ft | 588 kts | 97° |
| 2026-05-06 17:46 | 32.03237 | -109.59773 | 39147 ft | 598 kts | 97° |
| 2026-05-06 17:46 | 32.03100 | -109.49831 | 39145 ft | 605 kts | 97° |
| 2026-05-06 17:47 | 32.02984 | -109.41141 | 39147 ft | 608 kts | 97° |
| 2026-05-06 17:47 | 32.02849 | -109.31106 | 39125 ft | 608 kts | 97° |
| 2026-05-06 17:48 | 32.02709 | -109.21072 | 39135 ft | 607 kts | 97° |
| 2026-05-06 17:48 | 32.02561 | -109.11000 | 39133 ft | 608 kts | 97° |
| 2026-05-06 17:49 | 32.02407 | -109.00919 | 39130 ft | 608 kts | 98° |
| 2026-05-06 17:49 | 32.02246 | -108.90888 | 39134 ft | 608 kts | 98° |
| 2026-05-06 17:50 | 32.02074 | -108.80746 | 39135 ft | 611 kts | 97° |
| 2026-05-06 17:50 | 32.01898 | -108.70713 | 39140 ft | 610 kts | 97° |
| 2026-05-06 17:51 | 32.01712 | -108.60607 | 39151 ft | 611 kts | 98° |
| 2026-05-06 17:51 | 32.01518 | -108.50493 | 39151 ft | 611 kts | 97° |
| 2026-05-06 17:52 | 32.01316 | -108.40381 | 39159 ft | 612 kts | 97° |
| 2026-05-06 17:52 | 32.01106 | -108.30246 | 39135 ft | 611 kts | 98° |
| 2026-05-06 17:53 | 32.00890 | -108.20189 | 39139 ft | 610 kts | 98° |
| 2026-05-06 17:53 | 32.00662 | -108.10018 | 39141 ft | 612 kts | 98° |
| 2026-05-06 17:54 | 32.00429 | -107.99928 | 39141 ft | 610 kts | 98° |
| 2026-05-06 17:54 | 32.00187 | -107.89833 | 39143 ft | 611 kts | 98° |
| 2026-05-06 17:55 | 31.99936 | -107.79688 | 39130 ft | 612 kts | 98° |
| 2026-05-06 17:55 | 31.99676 | -107.69514 | 39125 ft | 614 kts | 98° |
| 2026-05-06 17:56 | 31.99409 | -107.59354 | 39127 ft | 614 kts | 98° |
| 2026-05-06 17:56 | 31.99173 | -107.50616 | 39129 ft | 615 kts | 98° |
| 2026-05-06 17:57 | 31.98891 | -107.40475 | 39136 ft | 613 kts | 98° |
| 2026-05-06 17:57 | 31.98634 | -107.31481 | 39114 ft | 614 kts | 99° |
| 2026-05-06 17:58 | 31.98335 | -107.21291 | 39122 ft | 614 kts | 99° |
| 2026-05-06 17:58 | 31.98030 | -107.11143 | 39123 ft | 615 kts | 99° |
| 2026-05-06 17:59 | 31.97714 | -107.00913 | 39121 ft | 615 kts | 99° |
| 2026-05-06 17:59 | 31.97392 | -106.90778 | 39126 ft | 615 kts | 99° |
| 2026-05-06 18:00 | 31.97062 | -106.80609 | 39122 ft | 614 kts | 99° |
| 2026-05-06 18:00 | 31.96721 | -106.70392 | 39130 ft | 614 kts | 99° |
| 2026-05-06 18:01 | 31.96373 | -106.60181 | 39143 ft | 616 kts | 99° |
| 2026-05-06 18:01 | 31.96019 | -106.50040 | 39144 ft | 614 kts | 99° |
| 2026-05-06 18:02 | 31.95654 | -106.39830 | 39147 ft | 616 kts | 99° |
| 2026-05-06 18:02 | 31.95282 | -106.29644 | 39116 ft | 615 kts | 100° |
| 2026-05-06 18:03 | 31.95069 | -106.19450 | 39118 ft | 619 kts | 97° |
| 2026-05-06 18:03 | 31.95024 | -106.09180 | 39132 ft | 620 kts | 97° |
| 2026-05-06 18:04 | 31.94962 | -105.98888 | 39144 ft | 618 kts | 97° |
| 2026-05-06 18:04 | 31.94884 | -105.88635 | 39140 ft | 620 kts | 97° |
| 2026-05-06 18:05 | 31.94792 | -105.78363 | 39147 ft | 621 kts | 97° |
| 2026-05-06 18:05 | 31.94691 | -105.68121 | 39153 ft | 622 kts | 98° |
| 2026-05-06 18:06 | 31.94580 | -105.57842 | 39153 ft | 621 kts | 97° |
| 2026-05-06 18:06 | 31.94458 | -105.47566 | 39148 ft | 622 kts | 97° |
| 2026-05-06 18:07 | 31.94327 | -105.37239 | 39134 ft | 623 kts | 97° |
| 2026-05-06 18:07 | 31.94188 | -105.26888 | 39098 ft | 624 kts | 98° |
| 2026-05-06 18:08 | 31.94040 | -105.16538 | 39092 ft | 624 kts | 98° |
| 2026-05-06 18:08 | 31.93899 | -105.07145 | 39094 ft | 623 kts | 98° |
| 2026-05-06 18:09 | 31.93743 | -104.97353 | 39093 ft | 624 kts | 98° |
| 2026-05-06 18:09 | 31.93571 | -104.87031 | 39108 ft | 626 kts | 98° |
| 2026-05-06 18:10 | 31.93391 | -104.76711 | 39117 ft | 625 kts | 98° |
| 2026-05-06 18:10 | 31.93206 | -104.66500 | 39127 ft | 622 kts | 98° |
| 2026-05-06 18:11 | 31.93040 | -104.57846 | 39118 ft | 625 kts | 98° |
| 2026-05-06 18:11 | 31.92801 | -104.45798 | 39096 ft | 627 kts | 98° |
| 2026-05-06 18:12 | 31.92585 | -104.35378 | 39098 ft | 627 kts | 98° |
| 2026-05-06 18:12 | 31.92362 | -104.24997 | 39060 ft | 627 kts | 98° |
| 2026-05-06 18:13 | 31.92134 | -104.14619 | 39046 ft | 611 kts | 98° |
| 2026-05-06 18:13 | 31.92026 | -104.09638 | 38793 ft | 598 kts | 99° |
| 2026-05-06 18:13 | 31.91912 | -104.04717 | 38004 ft | 597 kts | 99° |
| 2026-05-06 18:14 | 31.91794 | -103.99802 | 37161 ft | 597 kts | 98° |
| 2026-05-06 18:14 | 31.91674 | -103.94901 | 36318 ft | 596 kts | 99° |
| 2026-05-06 18:14 | 31.91551 | -103.89924 | 35458 ft | 594 kts | 99° |
| 2026-05-06 18:14 | 31.91429 | -103.85003 | 34610 ft | 592 kts | 98° |
| 2026-05-06 18:15 | 31.91306 | -103.80143 | 33776 ft | 590 kts | 98° |
| 2026-05-06 18:15 | 31.91182 | -103.75294 | 32976 ft | 588 kts | 98° |
| 2026-05-06 18:15 | 31.91056 | -103.70465 | 32243 ft | 585 kts | 98° |
| 2026-05-06 18:15 | 31.90930 | -103.65667 | 31509 ft | 582 kts | 97° |
| 2026-05-06 18:16 | 31.90801 | -103.60843 | 30755 ft | 579 kts | 97° |
| 2026-05-06 18:16 | 31.90673 | -103.56092 | 30043 ft | 575 kts | 97° |
| 2026-05-06 18:16 | 31.90542 | -103.51360 | 29306 ft | 572 kts | 97° |
| 2026-05-06 18:16 | 31.90410 | -103.46613 | 28537 ft | 568 kts | 97° |
| 2026-05-06 18:17 | 31.90280 | -103.42011 | 27802 ft | 565 kts | 97° |
| 2026-05-06 18:17 | 31.90147 | -103.37334 | 27043 ft | 561 kts | 97° |
| 2026-05-06 18:17 | 31.90013 | -103.32713 | 26281 ft | 556 kts | 97° |
| 2026-05-06 18:17 | 31.89882 | -103.28157 | 25391 ft | 540 kts | 97° |
| 2026-05-06 18:18 | 31.89755 | -103.23776 | 24656 ft | 521 kts | 97° |
| 2026-05-06 18:18 | 31.89631 | -103.19578 | 23918 ft | 504 kts | 97° |
| 2026-05-06 18:18 | 31.89506 | -103.15475 | 23156 ft | 489 kts | 97° |
| 2026-05-06 18:18 | 31.89385 | -103.11551 | 22418 ft | 475 kts | 97° |
| 2026-05-06 18:19 | 31.89263 | -103.07649 | 21655 ft | 463 kts | 97° |
| 2026-05-06 18:19 | 31.89145 | -103.03904 | 20912 ft | 452 kts | 97° |
| 2026-05-06 18:19 | 31.89027 | -103.00246 | 20174 ft | 442 kts | 97° |
| 2026-05-06 18:19 | 31.88911 | -102.96635 | 19431 ft | 432 kts | 97° |
| 2026-05-06 18:20 | 31.88796 | -102.93124 | 18702 ft | 424 kts | 97° |
| 2026-05-06 18:20 | 31.88682 | -102.89658 | 17972 ft | 416 kts | 97° |
| 2026-05-06 18:20 | 31.88570 | -102.86287 | 17258 ft | 409 kts | 97° |
| 2026-05-06 18:20 | 31.88459 | -102.82964 | 16554 ft | 402 kts | 96° |
| 2026-05-06 18:21 | 31.88348 | -102.79654 | 15837 ft | 396 kts | 96° |
| 2026-05-06 18:21 | 31.88238 | -102.76427 | 15167 ft | 391 kts | 96° |
| 2026-05-06 18:21 | 31.88129 | -102.73230 | 14738 ft | 386 kts | 95° |
| 2026-05-06 18:21 | 31.88021 | -102.70063 | 14361 ft | 380 kts | 95° |
| 2026-05-06 18:22 | 31.87915 | -102.66971 | 13987 ft | 374 kts | 95° |
| 2026-05-06 18:22 | 31.87809 | -102.63899 | 13625 ft | 369 kts | 95° |
| 2026-05-06 18:22 | 31.87703 | -102.60878 | 13265 ft | 364 kts | 95° |
| 2026-05-06 18:22 | 31.87598 | -102.57902 | 12907 ft | 359 kts | 95° |
| 2026-05-06 18:23 | 31.87494 | -102.54964 | 12553 ft | 355 kts | 94° |
| 2026-05-06 18:23 | 31.87391 | -102.52084 | 12235 ft | 351 kts | 94° |
| 2026-05-06 18:23 | 31.87287 | -102.49174 | 11915 ft | 347 kts | 94° |
| 2026-05-06 18:23 | 31.87185 | -102.46344 | 11513 ft | 342 kts | 94° |
| 2026-05-06 18:24 | 31.87085 | -102.43577 | 11096 ft | 331 kts | 94° |
| 2026-05-06 18:24 | 31.86987 | -102.40888 | 10530 ft | 327 kts | 93° |
| 2026-05-06 18:24 | 31.86888 | -102.38211 | 9929 ft | 323 kts | 92° |
| 2026-05-06 18:24 | 31.86791 | -102.35584 | 9330 ft | 320 kts | 92° |
| 2026-05-06 18:25 | 31.86695 | -102.32976 | 8721 ft | 317 kts | 93° |
| 2026-05-06 18:25 | 31.86598 | -102.30363 | 8099 ft | 313 kts | 92° |
| 2026-05-06 18:25 | 31.86503 | -102.27817 | 7488 ft | 310 kts | 92° |
| 2026-05-06 18:25 | 31.86407 | -102.25266 | 6866 ft | 304 kts | 92° |
| 2026-05-06 18:26 | 31.86318 | -102.22920 | 6274 ft | 276 kts | 92° |
| 2026-05-06 18:26 | 31.86234 | -102.20719 | 5702 ft | 258 kts | 91° |
| 2026-05-06 18:26 | 31.86155 | -102.18661 | 5148 ft | 241 kts | 91° |
| 2026-05-06 18:26 | 31.86150 | -102.16737 | 4693 ft | 223 kts | 76° |
| 2026-05-06 18:27 | 31.86811 | -102.15243 | 4478 ft | 197 kts | 41° |
| 2026-05-06 18:27 | 31.87936 | -102.14513 | 4328 ft | 173 kts | 21° |
| 2026-05-06 18:27 | 31.89023 | -102.14043 | 4192 ft | 156 kts | 9° |
| 2026-05-06 18:27 | 31.90058 | -102.14153 | 4075 ft | 141 kts | 348° |
| 2026-05-06 18:28 | 31.90971 | -102.14403 | 3939 ft | 125 kts | 347° |
| 2026-05-06 18:28 | 31.91805 | -102.14734 | 3774 ft | 131 kts | 328° |
| 2026-05-06 18:28 | 31.92422 | -102.15598 | 3576 ft | 143 kts | 301° |
| 2026-05-06 18:28 | 31.92866 | -102.16665 | 3322 ft | 145 kts | 298° |
| 2026-05-06 18:29 | 31.93278 | -102.17767 | 3108 ft | 144 kts | 297° |
| 2026-05-06 18:29 | 31.93706 | -102.18828 | 2932 ft | 142 kts | 300° |
| 2026-05-06 18:29 | 31.94104 | -102.19879 | 2869 ft | 133 kts | 296° |
| 2026-05-06 18:29 | 31.94363 | -102.20549 | 2871 ft | 22 kts | 278° |
| 2026-05-06 18:30 | 31.94250 | -102.20586 | 2870 ft | 22 kts | 174° |
| 2026-05-06 18:30 | 31.94067 | -102.20566 | 2869 ft | 29 kts | 178° |
| 2026-05-06 18:30 | 31.93836 | -102.20542 | 2867 ft | 36 kts | 175° |
| 2026-05-06 18:30 | 31.93713 | -102.20558 | 2867 ft | 11 kts | 248° |
| 2026-05-06 18:31 | 31.93704 | -102.20644 | 2867 ft | 7 kts | 265° |
| 2026-05-06 18:31 | 31.93702 | -102.20678 | 2868 ft | 2 kts | 268° |
| 2026-05-06 18:31 | 31.93701 | -102.20690 | 2868 ft | 2 kts | 268° |
| 2026-05-06 18:31 | 31.93701 | -102.20693 | 2868 ft | 0 kts | 268° |